sensor_id;sensor_type;location;lat;lon;timestamp;P1;durP1;ratioP1;P2;durP2;ratioP2
46377;SDS011;32083;47.360;9.650;2023-01-31T00:01:28;14.52;;;9.65;;
46377;SDS011;32083;47.360;9.650;2023-01-31T00:06:52;11.80;;;8.68;;
46377;SDS011;32083;47.360;9.650;2023-01-31T00:09:28;12.15;;;9.13;;
46377;SDS011;32083;47.360;9.650;2023-01-31T00:12:17;10.80;;;8.13;;
46377;SDS011;32083;47.360;9.650;2023-01-31T00:15:11;10.57;;;8.55;;
46377;SDS011;32083;47.360;9.650;2023-01-31T00:18:08;10.32;;;7.78;;
46377;SDS011;32083;47.360;9.650;2023-01-31T00:21:07;11.23;;;7.72;;
46377;SDS011;32083;47.360;9.650;2023-01-31T00:23:48;11.23;;;7.68;;
46377;SDS011;32083;47.360;9.650;2023-01-31T00:28:48;10.65;;;7.70;;
46377;SDS011;32083;47.360;9.650;2023-01-31T00:31:19;9.93;;;8.40;;
46377;SDS011;32083;47.360;9.650;2023-01-31T00:33:50;12.05;;;8.73;;
46377;SDS011;32083;47.360;9.650;2023-01-31T00:36:22;12.85;;;9.35;;
46377;SDS011;32083;47.360;9.650;2023-01-31T00:38:59;11.55;;;8.20;;
46377;SDS011;32083;47.360;9.650;2023-01-31T00:41:30;12.35;;;9.98;;
46377;SDS011;32083;47.360;9.650;2023-01-31T00:43:58;14.02;;;8.90;;
46377;SDS011;32083;47.360;9.650;2023-01-31T00:46:32;10.05;;;8.57;;
46377;SDS011;32083;47.360;9.650;2023-01-31T00:48:58;11.07;;;9.10;;
46377;SDS011;32083;47.360;9.650;2023-01-31T00:51:33;10.63;;;8.65;;
46377;SDS011;32083;47.360;9.650;2023-01-31T00:54:00;11.82;;;9.60;;
46377;SDS011;32083;47.360;9.650;2023-01-31T00:56:31;10.65;;;8.23;;
46377;SDS011;32083;47.360;9.650;2023-01-31T00:58:59;11.45;;;8.38;;
46377;SDS011;32083;47.360;9.650;2023-01-31T01:01:35;10.93;;;7.90;;
46377;SDS011;32083;47.360;9.650;2023-01-31T01:04:27;13.25;;;9.35;;
46377;SDS011;32083;47.360;9.650;2023-01-31T01:06:57;12.05;;;9.05;;
46377;SDS011;32083;47.360;9.650;2023-01-31T01:09:28;11.75;;;9.30;;
46377;SDS011;32083;47.360;9.650;2023-01-31T01:12:09;10.65;;;8.52;;
46377;SDS011;32083;47.360;9.650;2023-01-31T01:14:39;13.77;;;8.60;;
46377;SDS011;32083;47.360;9.650;2023-01-31T01:17:11;12.35;;;8.98;;
46377;SDS011;32083;47.360;9.650;2023-01-31T01:19:37;12.73;;;8.48;;
46377;SDS011;32083;47.360;9.650;2023-01-31T01:22:07;11.02;;;8.65;;
46377;SDS011;32083;47.360;9.650;2023-01-31T01:24:41;11.13;;;8.45;;
46377;SDS011;32083;47.360;9.650;2023-01-31T01:27:32;13.32;;;9.90;;
46377;SDS011;32083;47.360;9.650;2023-01-31T01:29:58;15.07;;;10.02;;
46377;SDS011;32083;47.360;9.650;2023-01-31T01:32:45;13.00;;;10.38;;
46377;SDS011;32083;47.360;9.650;2023-01-31T01:35:14;12.38;;;9.23;;
46377;SDS011;32083;47.360;9.650;2023-01-31T01:37:39;16.20;;;10.63;;
46377;SDS011;32083;47.360;9.650;2023-01-31T01:40:07;12.10;;;10.05;;
46377;SDS011;32083;47.360;9.650;2023-01-31T01:42:48;13.20;;;9.43;;
46377;SDS011;32083;47.360;9.650;2023-01-31T01:45:19;12.38;;;8.95;;
46377;SDS011;32083;47.360;9.650;2023-01-31T01:47:49;10.93;;;9.35;;
46377;SDS011;32083;47.360;9.650;2023-01-31T01:50:22;12.68;;;9.52;;
46377;SDS011;32083;47.360;9.650;2023-01-31T01:53:17;14.35;;;10.00;;
46377;SDS011;32083;47.360;9.650;2023-01-31T01:56:06;12.90;;;9.23;;
46377;SDS011;32083;47.360;9.650;2023-01-31T01:58:46;12.15;;;8.60;;
46377;SDS011;32083;47.360;9.650;2023-01-31T02:01:35;11.88;;;8.88;;
46377;SDS011;32083;47.360;9.650;2023-01-31T02:04:04;14.05;;;9.02;;
46377;SDS011;32083;47.360;9.650;2023-01-31T02:06:38;12.98;;;9.80;;
46377;SDS011;32083;47.360;9.650;2023-01-31T02:09:06;11.35;;;10.05;;
46377;SDS011;32083;47.360;9.650;2023-01-31T02:11:57;10.93;;;9.63;;
46377;SDS011;32083;47.360;9.650;2023-01-31T02:14:33;14.52;;;10.23;;
46377;SDS011;32083;47.360;9.650;2023-01-31T02:16:59;13.35;;;9.95;;
46377;SDS011;32083;47.360;9.650;2023-01-31T02:19:42;13.45;;;9.18;;
46377;SDS011;32083;47.360;9.650;2023-01-31T02:22:44;14.82;;;9.32;;
46377;SDS011;32083;47.360;9.650;2023-01-31T02:26:06;11.30;;;8.75;;
46377;SDS011;32083;47.360;9.650;2023-01-31T02:40:01;16.15;;;9.95;;
46377;SDS011;32083;47.360;9.650;2023-01-31T02:45:48;13.23;;;9.43;;
46377;SDS011;32083;47.360;9.650;2023-01-31T02:48:46;13.63;;;9.68;;
46377;SDS011;32083;47.360;9.650;2023-01-31T02:51:32;15.63;;;10.45;;
46377;SDS011;32083;47.360;9.650;2023-01-31T02:54:23;14.13;;;10.30;;
46377;SDS011;32083;47.360;9.650;2023-01-31T02:57:13;14.25;;;10.40;;
46377;SDS011;32083;47.360;9.650;2023-01-31T02:59:45;12.55;;;9.85;;
46377;SDS011;32083;47.360;9.650;2023-01-31T03:02:32;12.73;;;10.27;;
46377;SDS011;32083;47.360;9.650;2023-01-31T03:05:25;15.52;;;10.35;;
46377;SDS011;32083;47.360;9.650;2023-01-31T03:07:57;15.85;;;11.32;;
46377;SDS011;32083;47.360;9.650;2023-01-31T03:13:41;14.35;;;11.23;;
46377;SDS011;32083;47.360;9.650;2023-01-31T03:24:28;17.60;;;11.48;;
46377;SDS011;32083;47.360;9.650;2023-01-31T03:27:03;17.85;;;11.30;;
46377;SDS011;32083;47.360;9.650;2023-01-31T03:29:32;14.00;;;10.77;;
46377;SDS011;32083;47.360;9.650;2023-01-31T03:32:17;15.75;;;11.63;;
46377;SDS011;32083;47.360;9.650;2023-01-31T03:34:56;16.42;;;11.32;;
46377;SDS011;32083;47.360;9.650;2023-01-31T03:38:21;15.23;;;10.48;;
46377;SDS011;32083;47.360;9.650;2023-01-31T03:41:22;16.58;;;10.77;;
46377;SDS011;32083;47.360;9.650;2023-01-31T03:43:54;16.33;;;11.20;;
46377;SDS011;32083;47.360;9.650;2023-01-31T03:46:48;14.98;;;11.25;;
46377;SDS011;32083;47.360;9.650;2023-01-31T03:49:39;15.40;;;10.85;;
46377;SDS011;32083;47.360;9.650;2023-01-31T03:52:09;16.45;;;11.48;;
46377;SDS011;32083;47.360;9.650;2023-01-31T03:55:06;14.40;;;10.60;;
46377;SDS011;32083;47.360;9.650;2023-01-31T03:57:42;12.55;;;9.85;;
46377;SDS011;32083;47.360;9.650;2023-01-31T04:00:13;18.05;;;12.27;;
46377;SDS011;32083;47.360;9.650;2023-01-31T04:02:44;16.00;;;12.13;;
46377;SDS011;32083;47.360;9.650;2023-01-31T04:07:49;19.13;;;13.68;;
46377;SDS011;32083;47.360;9.650;2023-01-31T04:10:17;15.90;;;11.55;;
46377;SDS011;32083;47.360;9.650;2023-01-31T04:12:56;13.93;;;10.30;;
46377;SDS011;32083;47.360;9.650;2023-01-31T04:15:41;19.95;;;11.73;;
46377;SDS011;32083;47.360;9.650;2023-01-31T04:18:09;16.20;;;12.23;;
46377;SDS011;32083;47.360;9.650;2023-01-31T04:20:34;19.63;;;14.80;;
46377;SDS011;32083;47.360;9.650;2023-01-31T04:23:02;16.08;;;12.10;;
46377;SDS011;32083;47.360;9.650;2023-01-31T04:25:34;15.88;;;11.57;;
46377;SDS011;32083;47.360;9.650;2023-01-31T04:28:10;19.00;;;13.38;;
46377;SDS011;32083;47.360;9.650;2023-01-31T04:30:56;16.60;;;13.40;;
46377;SDS011;32083;47.360;9.650;2023-01-31T04:33:27;16.35;;;12.20;;
46377;SDS011;32083;47.360;9.650;2023-01-31T04:35:54;14.88;;;10.88;;
46377;SDS011;32083;47.360;9.650;2023-01-31T04:38:21;14.57;;;11.13;;
46377;SDS011;32083;47.360;9.650;2023-01-31T04:41:00;15.32;;;12.35;;
46377;SDS011;32083;47.360;9.650;2023-01-31T04:43:28;18.67;;;14.57;;
46377;SDS011;32083;47.360;9.650;2023-01-31T04:46:00;19.10;;;15.15;;
46377;SDS011;32083;47.360;9.650;2023-01-31T04:48:32;17.48;;;14.98;;
46377;SDS011;32083;47.360;9.650;2023-01-31T04:50:59;20.98;;;14.25;;
46377;SDS011;32083;47.360;9.650;2023-01-31T04:53:34;17.48;;;12.63;;
46377;SDS011;32083;47.360;9.650;2023-01-31T04:56:03;21.10;;;14.80;;
46377;SDS011;32083;47.360;9.650;2023-01-31T04:58:52;18.45;;;13.52;;
46377;SDS011;32083;47.360;9.650;2023-01-31T05:01:42;17.77;;;12.38;;
46377;SDS011;32083;47.360;9.650;2023-01-31T05:06:41;18.45;;;13.90;;
46377;SDS011;32083;47.360;9.650;2023-01-31T05:09:13;18.70;;;14.18;;
46377;SDS011;32083;47.360;9.650;2023-01-31T05:12:02;19.25;;;14.77;;
46377;SDS011;32083;47.360;9.650;2023-01-31T05:14:33;20.85;;;14.80;;
46377;SDS011;32083;47.360;9.650;2023-01-31T05:16:59;21.67;;;15.60;;
46377;SDS011;32083;47.360;9.650;2023-01-31T05:19:26;22.58;;;15.55;;
46377;SDS011;32083;47.360;9.650;2023-01-31T05:21:54;23.35;;;16.73;;
46377;SDS011;32083;47.360;9.650;2023-01-31T05:24:28;21.90;;;14.95;;
46377;SDS011;32083;47.360;9.650;2023-01-31T05:26:58;22.55;;;17.60;;
46377;SDS011;32083;47.360;9.650;2023-01-31T05:29:29;19.98;;;15.45;;
46377;SDS011;32083;47.360;9.650;2023-01-31T05:32:01;21.65;;;16.55;;
46377;SDS011;32083;47.360;9.650;2023-01-31T05:34:34;20.77;;;14.73;;
46377;SDS011;32083;47.360;9.650;2023-01-31T05:37:03;20.63;;;14.23;;
46377;SDS011;32083;47.360;9.650;2023-01-31T05:39:30;17.13;;;14.35;;
46377;SDS011;32083;47.360;9.650;2023-01-31T05:42:00;21.08;;;15.38;;
46377;SDS011;32083;47.360;9.650;2023-01-31T05:44:26;19.75;;;14.98;;
46377;SDS011;32083;47.360;9.650;2023-01-31T05:46:54;17.88;;;13.93;;
46377;SDS011;32083;47.360;9.650;2023-01-31T05:49:20;23.98;;;16.90;;
46377;SDS011;32083;47.360;9.650;2023-01-31T05:51:47;20.38;;;16.42;;
46377;SDS011;32083;47.360;9.650;2023-01-31T05:54:13;27.48;;;20.17;;
46377;SDS011;32083;47.360;9.650;2023-01-31T05:56:41;30.83;;;21.45;;
46377;SDS011;32083;47.360;9.650;2023-01-31T05:59:08;29.98;;;22.58;;
46377;SDS011;32083;47.360;9.650;2023-01-31T06:01:41;24.77;;;17.45;;
46377;SDS011;32083;47.360;9.650;2023-01-31T06:04:10;28.00;;;17.35;;
46377;SDS011;32083;47.360;9.650;2023-01-31T06:06:35;23.23;;;16.58;;
46377;SDS011;32083;47.360;9.650;2023-01-31T06:09:01;21.08;;;16.20;;
46377;SDS011;32083;47.360;9.650;2023-01-31T06:11:27;22.13;;;15.48;;
46377;SDS011;32083;47.360;9.650;2023-01-31T06:13:57;25.15;;;16.77;;
46377;SDS011;32083;47.360;9.650;2023-01-31T06:16:23;25.50;;;16.73;;
46377;SDS011;32083;47.360;9.650;2023-01-31T06:18:49;22.15;;;17.45;;
46377;SDS011;32083;47.360;9.650;2023-01-31T06:21:16;24.92;;;17.33;;
46377;SDS011;32083;47.360;9.650;2023-01-31T06:23:42;25.23;;;15.57;;
46377;SDS011;32083;47.360;9.650;2023-01-31T06:26:11;22.83;;;16.75;;
46377;SDS011;32083;47.360;9.650;2023-01-31T06:28:38;18.25;;;14.13;;
46377;SDS011;32083;47.360;9.650;2023-01-31T06:31:05;22.85;;;15.95;;
46377;SDS011;32083;47.360;9.650;2023-01-31T06:33:34;20.52;;;14.80;;
46377;SDS011;32083;47.360;9.650;2023-01-31T06:36:00;20.10;;;15.27;;
46377;SDS011;32083;47.360;9.650;2023-01-31T06:38:27;21.73;;;15.82;;
46377;SDS011;32083;47.360;9.650;2023-01-31T06:40:54;20.98;;;16.30;;
46377;SDS011;32083;47.360;9.650;2023-01-31T06:43:20;19.30;;;16.27;;
46377;SDS011;32083;47.360;9.650;2023-01-31T06:45:46;19.95;;;17.48;;
46377;SDS011;32083;47.360;9.650;2023-01-31T06:48:15;23.02;;;16.70;;
46377;SDS011;32083;47.360;9.650;2023-01-31T06:50:42;23.48;;;18.38;;
46377;SDS011;32083;47.360;9.650;2023-01-31T06:53:08;28.73;;;18.25;;
46377;SDS011;32083;47.360;9.650;2023-01-31T06:55:35;26.20;;;21.38;;
46377;SDS011;32083;47.360;9.650;2023-01-31T06:58:01;30.52;;;22.85;;
46377;SDS011;32083;47.360;9.650;2023-01-31T07:00:27;27.60;;;20.50;;
46377;SDS011;32083;47.360;9.650;2023-01-31T07:02:53;24.55;;;18.30;;
46377;SDS011;32083;47.360;9.650;2023-01-31T07:05:20;32.65;;;23.90;;
46377;SDS011;32083;47.360;9.650;2023-01-31T07:07:47;36.20;;;26.60;;
46377;SDS011;32083;47.360;9.650;2023-01-31T07:10:14;23.20;;;17.33;;
46377;SDS011;32083;47.360;9.650;2023-01-31T07:12:41;23.83;;;17.95;;
46377;SDS011;32083;47.360;9.650;2023-01-31T07:15:08;19.95;;;16.30;;
46377;SDS011;32083;47.360;9.650;2023-01-31T07:17:35;18.33;;;14.93;;
46377;SDS011;32083;47.360;9.650;2023-01-31T07:20:01;23.45;;;17.05;;
46377;SDS011;32083;47.360;9.650;2023-01-31T07:22:27;22.55;;;16.65;;
46377;SDS011;32083;47.360;9.650;2023-01-31T07:24:53;18.95;;;14.63;;
46377;SDS011;32083;47.360;9.650;2023-01-31T07:27:19;19.00;;;14.45;;
46377;SDS011;32083;47.360;9.650;2023-01-31T07:29:45;21.95;;;17.33;;
46377;SDS011;32083;47.360;9.650;2023-01-31T07:32:11;20.25;;;17.90;;
46377;SDS011;32083;47.360;9.650;2023-01-31T07:34:37;21.33;;;16.65;;
46377;SDS011;32083;47.360;9.650;2023-01-31T07:37:03;19.50;;;16.42;;
46377;SDS011;32083;47.360;9.650;2023-01-31T07:39:32;18.90;;;15.52;;
46377;SDS011;32083;47.360;9.650;2023-01-31T07:41:59;17.25;;;13.95;;
46377;SDS011;32083;47.360;9.650;2023-01-31T07:44:42;16.05;;;12.80;;
46377;SDS011;32083;47.360;9.650;2023-01-31T07:47:08;18.23;;;12.98;;
46377;SDS011;32083;47.360;9.650;2023-01-31T07:49:41;19.27;;;14.07;;
46377;SDS011;32083;47.360;9.650;2023-01-31T07:52:15;20.35;;;16.15;;
46377;SDS011;32083;47.360;9.650;2023-01-31T07:55:08;17.25;;;13.90;;
46377;SDS011;32083;47.360;9.650;2023-01-31T07:57:41;17.42;;;14.02;;
46377;SDS011;32083;47.360;9.650;2023-01-31T08:00:07;16.42;;;12.98;;
46377;SDS011;32083;47.360;9.650;2023-01-31T08:02:53;19.80;;;14.95;;
46377;SDS011;32083;47.360;9.650;2023-01-31T08:05:37;18.35;;;15.13;;
46377;SDS011;32083;47.360;9.650;2023-01-31T08:08:03;20.88;;;15.93;;
46377;SDS011;32083;47.360;9.650;2023-01-31T08:10:35;20.70;;;15.00;;
46377;SDS011;32083;47.360;9.650;2023-01-31T08:13:01;18.77;;;14.38;;
46377;SDS011;32083;47.360;9.650;2023-01-31T08:15:27;19.20;;;14.45;;
46377;SDS011;32083;47.360;9.650;2023-01-31T08:17:53;15.93;;;14.07;;
46377;SDS011;32083;47.360;9.650;2023-01-31T08:20:18;19.98;;;13.68;;
46377;SDS011;32083;47.360;9.650;2023-01-31T08:22:44;16.73;;;13.23;;
46377;SDS011;32083;47.360;9.650;2023-01-31T08:25:10;17.42;;;12.98;;
46377;SDS011;32083;47.360;9.650;2023-01-31T08:27:36;16.88;;;12.77;;
46377;SDS011;32083;47.360;9.650;2023-01-31T08:30:02;18.10;;;13.63;;
46377;SDS011;32083;47.360;9.650;2023-01-31T08:32:29;12.93;;;11.48;;
46377;SDS011;32083;47.360;9.650;2023-01-31T08:34:55;14.55;;;10.73;;
46377;SDS011;32083;47.360;9.650;2023-01-31T08:37:21;12.43;;;10.00;;
46377;SDS011;32083;47.360;9.650;2023-01-31T08:39:47;11.52;;;10.02;;
46377;SDS011;32083;47.360;9.650;2023-01-31T08:42:12;12.68;;;10.35;;
46377;SDS011;32083;47.360;9.650;2023-01-31T08:44:38;11.18;;;9.93;;
46377;SDS011;32083;47.360;9.650;2023-01-31T08:47:04;13.40;;;10.98;;
46377;SDS011;32083;47.360;9.650;2023-01-31T08:49:30;13.80;;;9.85;;
46377;SDS011;32083;47.360;9.650;2023-01-31T08:52:00;14.43;;;10.80;;
46377;SDS011;32083;47.360;9.650;2023-01-31T08:54:26;11.95;;;9.82;;
46377;SDS011;32083;47.360;9.650;2023-01-31T08:56:52;14.52;;;11.23;;
46377;SDS011;32083;47.360;9.650;2023-01-31T08:59:18;13.93;;;11.68;;
46377;SDS011;32083;47.360;9.650;2023-01-31T09:01:44;15.68;;;10.85;;
46377;SDS011;32083;47.360;9.650;2023-01-31T09:04:10;11.93;;;9.55;;
46377;SDS011;32083;47.360;9.650;2023-01-31T09:06:36;14.35;;;10.48;;
46377;SDS011;32083;47.360;9.650;2023-01-31T09:09:02;12.15;;;9.13;;
46377;SDS011;32083;47.360;9.650;2023-01-31T09:11:28;14.55;;;9.40;;
46377;SDS011;32083;47.360;9.650;2023-01-31T09:13:54;11.70;;;8.23;;
46377;SDS011;32083;47.360;9.650;2023-01-31T09:16:21;10.18;;;8.57;;
46377;SDS011;32083;47.360;9.650;2023-01-31T09:18:47;10.82;;;7.35;;
46377;SDS011;32083;47.360;9.650;2023-01-31T09:21:17;9.60;;;6.88;;
46377;SDS011;32083;47.360;9.650;2023-01-31T09:23:45;9.50;;;6.88;;
46377;SDS011;32083;47.360;9.650;2023-01-31T09:26:12;7.93;;;6.63;;
46377;SDS011;32083;47.360;9.650;2023-01-31T09:28:40;7.72;;;5.30;;
46377;SDS011;32083;47.360;9.650;2023-01-31T09:31:14;5.97;;;4.55;;
46377;SDS011;32083;47.360;9.650;2023-01-31T09:33:41;5.20;;;3.97;;
46377;SDS011;32083;47.360;9.650;2023-01-31T09:36:11;7.38;;;3.83;;
46377;SDS011;32083;47.360;9.650;2023-01-31T09:38:39;7.45;;;4.50;;
46377;SDS011;32083;47.360;9.650;2023-01-31T09:41:22;6.35;;;3.92;;
46377;SDS011;32083;47.360;9.650;2023-01-31T09:43:56;7.13;;;4.72;;
46377;SDS011;32083;47.360;9.650;2023-01-31T09:46:26;4.75;;;4.20;;
46377;SDS011;32083;47.360;9.650;2023-01-31T09:51:26;5.82;;;4.43;;
46377;SDS011;32083;47.360;9.650;2023-01-31T09:53:53;7.18;;;4.57;;
46377;SDS011;32083;47.360;9.650;2023-01-31T09:58:53;6.72;;;4.22;;
46377;SDS011;32083;47.360;9.650;2023-01-31T10:01:41;5.00;;;4.07;;
46377;SDS011;32083;47.360;9.650;2023-01-31T10:07:30;4.63;;;3.50;;
46377;SDS011;32083;47.360;9.650;2023-01-31T10:12:39;5.90;;;3.88;;
46377;SDS011;32083;47.360;9.650;2023-01-31T10:15:21;4.18;;;2.90;;
46377;SDS011;32083;47.360;9.650;2023-01-31T10:18:28;4.65;;;3.00;;
46377;SDS011;32083;47.360;9.650;2023-01-31T10:21:05;7.63;;;3.10;;
46377;SDS011;32083;47.360;9.650;2023-01-31T10:23:53;6.00;;;4.07;;
46377;SDS011;32083;47.360;9.650;2023-01-31T10:26:30;5.13;;;3.25;;
46377;SDS011;32083;47.360;9.650;2023-01-31T10:29:59;6.10;;;3.55;;
46377;SDS011;32083;47.360;9.650;2023-01-31T10:31:55;7.78;;;3.13;;
46377;SDS011;32083;47.360;9.650;2023-01-31T10:34:31;6.43;;;3.35;;
46377;SDS011;32083;47.360;9.650;2023-01-31T10:40:16;7.05;;;3.60;;
46377;SDS011;32083;47.360;9.650;2023-01-31T10:42:47;10.55;;;3.95;;
46377;SDS011;32083;47.360;9.650;2023-01-31T10:45:20;6.68;;;3.63;;
46377;SDS011;32083;47.360;9.650;2023-01-31T10:47:54;7.47;;;3.92;;
46377;SDS011;32083;47.360;9.650;2023-01-31T10:50:30;7.75;;;3.92;;
46377;SDS011;32083;47.360;9.650;2023-01-31T10:55:51;5.72;;;4.10;;
46377;SDS011;32083;47.360;9.650;2023-01-31T10:58:28;5.05;;;3.78;;
46377;SDS011;32083;47.360;9.650;2023-01-31T11:00:54;5.68;;;3.78;;
46377;SDS011;32083;47.360;9.650;2023-01-31T11:03:20;10.68;;;4.55;;
46377;SDS011;32083;47.360;9.650;2023-01-31T11:05:53;7.63;;;3.85;;
46377;SDS011;32083;47.360;9.650;2023-01-31T11:08:24;12.75;;;4.53;;
46377;SDS011;32083;47.360;9.650;2023-01-31T11:11:11;5.53;;;3.58;;
46377;SDS011;32083;47.360;9.650;2023-01-31T11:13:42;6.35;;;3.85;;
46377;SDS011;32083;47.360;9.650;2023-01-31T11:16:19;7.47;;;3.53;;
46377;SDS011;32083;47.360;9.650;2023-01-31T11:18:46;7.40;;;3.42;;
46377;SDS011;32083;47.360;9.650;2023-01-31T11:21:30;7.28;;;3.67;;
46377;SDS011;32083;47.360;9.650;2023-01-31T11:24:02;5.20;;;3.80;;
46377;SDS011;32083;47.360;9.650;2023-01-31T11:26:32;4.93;;;3.83;;
46377;SDS011;32083;47.360;9.650;2023-01-31T11:29:00;5.65;;;3.47;;
46377;SDS011;32083;47.360;9.650;2023-01-31T11:31:33;6.05;;;3.30;;
46377;SDS011;32083;47.360;9.650;2023-01-31T11:34:09;4.85;;;3.58;;
46377;SDS011;32083;47.360;9.650;2023-01-31T11:36:47;4.82;;;3.45;;
46377;SDS011;32083;47.360;9.650;2023-01-31T11:39:27;7.25;;;3.38;;
46377;SDS011;32083;47.360;9.650;2023-01-31T11:42:05;3.95;;;3.25;;
46377;SDS011;32083;47.360;9.650;2023-01-31T11:44:32;4.60;;;3.83;;
46377;SDS011;32083;47.360;9.650;2023-01-31T11:47:03;4.85;;;3.25;;
46377;SDS011;32083;47.360;9.650;2023-01-31T11:49:34;5.22;;;3.42;;
46377;SDS011;32083;47.360;9.650;2023-01-31T11:52:10;8.25;;;4.38;;
46377;SDS011;32083;47.360;9.650;2023-01-31T11:54:38;4.97;;;4.00;;
46377;SDS011;32083;47.360;9.650;2023-01-31T11:57:13;4.85;;;3.92;;
46377;SDS011;32083;47.360;9.650;2023-01-31T11:59:51;6.60;;;3.50;;
46377;SDS011;32083;47.360;9.650;2023-01-31T12:02:24;5.25;;;3.78;;
46377;SDS011;32083;47.360;9.650;2023-01-31T12:04:56;5.20;;;3.53;;
46377;SDS011;32083;47.360;9.650;2023-01-31T12:07:25;3.95;;;3.22;;
46377;SDS011;32083;47.360;9.650;2023-01-31T12:13:15;5.68;;;3.50;;
46377;SDS011;32083;47.360;9.650;2023-01-31T12:18:16;4.10;;;3.15;;
46377;SDS011;32083;47.360;9.650;2023-01-31T12:21:08;4.32;;;3.40;;
46377;SDS011;32083;47.360;9.650;2023-01-31T12:23:50;4.32;;;2.80;;
46377;SDS011;32083;47.360;9.650;2023-01-31T12:26:33;5.75;;;3.40;;
46377;SDS011;32083;47.360;9.650;2023-01-31T12:42:57;7.72;;;4.05;;
46377;SDS011;32083;47.360;9.650;2023-01-31T12:51:01;5.63;;;3.22;;
46377;SDS011;32083;47.360;9.650;2023-01-31T12:53:46;11.43;;;3.87;;
46377;SDS011;32083;47.360;9.650;2023-01-31T12:56:30;7.18;;;3.58;;
46377;SDS011;32083;47.360;9.650;2023-01-31T13:02:27;11.93;;;4.65;;
46377;SDS011;32083;47.360;9.650;2023-01-31T13:07:45;10.30;;;8.65;;
46377;SDS011;32083;47.360;9.650;2023-01-31T13:10:27;12.90;;;10.57;;
46377;SDS011;32083;47.360;9.650;2023-01-31T13:13:01;14.98;;;10.45;;
46377;SDS011;32083;47.360;9.650;2023-01-31T13:15:52;14.95;;;11.65;;
46377;SDS011;32083;47.360;9.650;2023-01-31T13:18:18;11.43;;;8.73;;
46377;SDS011;32083;47.360;9.650;2023-01-31T13:20:47;13.27;;;9.63;;
46377;SDS011;32083;47.360;9.650;2023-01-31T13:23:20;13.10;;;9.50;;
46377;SDS011;32083;47.360;9.650;2023-01-31T13:26:03;14.90;;;9.43;;
46377;SDS011;32083;47.360;9.650;2023-01-31T13:28:50;17.27;;;10.13;;
46377;SDS011;32083;47.360;9.650;2023-01-31T13:31:28;10.50;;;9.13;;
46377;SDS011;32083;47.360;9.650;2023-01-31T13:34:14;14.63;;;9.57;;
46377;SDS011;32083;47.360;9.650;2023-01-31T13:36:53;15.35;;;10.00;;
46377;SDS011;32083;47.360;9.650;2023-01-31T13:39:35;24.00;;;11.95;;
46377;SDS011;32083;47.360;9.650;2023-01-31T13:42:12;15.05;;;9.25;;
46377;SDS011;32083;47.360;9.650;2023-01-31T13:44:39;19.83;;;13.25;;
46377;SDS011;32083;47.360;9.650;2023-01-31T13:47:20;10.07;;;7.85;;
46377;SDS011;32083;47.360;9.650;2023-01-31T13:52:30;15.35;;;10.27;;
46377;SDS011;32083;47.360;9.650;2023-01-31T13:55:07;11.25;;;9.30;;
46377;SDS011;32083;47.360;9.650;2023-01-31T13:57:48;13.27;;;9.48;;
46377;SDS011;32083;47.360;9.650;2023-01-31T14:03:32;12.68;;;8.30;;
46377;SDS011;32083;47.360;9.650;2023-01-31T14:07:18;15.48;;;11.65;;
46377;SDS011;32083;47.360;9.650;2023-01-31T14:09:30;11.70;;;9.02;;
46377;SDS011;32083;47.360;9.650;2023-01-31T14:11:58;15.32;;;9.15;;
46377;SDS011;32083;47.360;9.650;2023-01-31T14:22:15;13.18;;;8.85;;
46377;SDS011;32083;47.360;9.650;2023-01-31T14:27:37;14.02;;;9.52;;
46377;SDS011;32083;47.360;9.650;2023-01-31T14:30:08;10.85;;;8.38;;
46377;SDS011;32083;47.360;9.650;2023-01-31T14:33:07;14.02;;;9.40;;
46377;SDS011;32083;47.360;9.650;2023-01-31T14:35:47;14.13;;;10.07;;
46377;SDS011;32083;47.360;9.650;2023-01-31T14:38:43;14.23;;;9.20;;
46377;SDS011;32083;47.360;9.650;2023-01-31T14:47:07;12.50;;;9.40;;
46377;SDS011;32083;47.360;9.650;2023-01-31T14:58:12;21.13;;;9.90;;
46377;SDS011;32083;47.360;9.650;2023-01-31T15:00:47;14.07;;;9.73;;
46377;SDS011;32083;47.360;9.650;2023-01-31T15:11:13;18.08;;;11.38;;
46377;SDS011;32083;47.360;9.650;2023-01-31T15:14:01;16.10;;;11.85;;
46377;SDS011;32083;47.360;9.650;2023-01-31T15:16:43;12.23;;;9.27;;
46377;SDS011;32083;47.360;9.650;2023-01-31T15:19:11;16.15;;;9.48;;
46377;SDS011;32083;47.360;9.650;2023-01-31T15:21:47;15.85;;;11.10;;
46377;SDS011;32083;47.360;9.650;2023-01-31T15:24:23;15.07;;;10.25;;
46377;SDS011;32083;47.360;9.650;2023-01-31T15:26:55;13.48;;;10.45;;
46377;SDS011;32083;47.360;9.650;2023-01-31T15:29:24;22.20;;;11.40;;
46377;SDS011;32083;47.360;9.650;2023-01-31T15:31:58;18.50;;;11.75;;
46377;SDS011;32083;47.360;9.650;2023-01-31T15:34:33;13.27;;;9.15;;
46377;SDS011;32083;47.360;9.650;2023-01-31T15:37:17;20.95;;;9.57;;
46377;SDS011;32083;47.360;9.650;2023-01-31T15:40:04;12.30;;;9.05;;
46377;SDS011;32083;47.360;9.650;2023-01-31T15:42:43;18.02;;;9.13;;
46377;SDS011;32083;47.360;9.650;2023-01-31T15:47:38;17.55;;;9.27;;
46377;SDS011;32083;47.360;9.650;2023-01-31T15:50:14;15.50;;;9.95;;
46377;SDS011;32083;47.360;9.650;2023-01-31T15:52:42;11.90;;;7.72;;
46377;SDS011;32083;47.360;9.650;2023-01-31T15:55:10;12.27;;;7.55;;
46377;SDS011;32083;47.360;9.650;2023-01-31T15:57:40;12.68;;;7.63;;
46377;SDS011;32083;47.360;9.650;2023-01-31T16:00:16;12.88;;;7.32;;
46377;SDS011;32083;47.360;9.650;2023-01-31T16:02:44;14.35;;;7.25;;
46377;SDS011;32083;47.360;9.650;2023-01-31T16:05:12;11.27;;;7.25;;
46377;SDS011;32083;47.360;9.650;2023-01-31T16:07:45;31.23;;;9.75;;
46377;SDS011;32083;47.360;9.650;2023-01-31T16:10:12;14.32;;;9.40;;
46377;SDS011;32083;47.360;9.650;2023-01-31T16:12:42;15.90;;;9.05;;
46377;SDS011;32083;47.360;9.650;2023-01-31T16:15:13;13.13;;;9.05;;
46377;SDS011;32083;47.360;9.650;2023-01-31T16:17:44;17.25;;;11.75;;
46377;SDS011;32083;47.360;9.650;2023-01-31T16:23:02;15.20;;;11.30;;
46377;SDS011;32083;47.360;9.650;2023-01-31T16:25:29;12.00;;;8.70;;
46377;SDS011;32083;47.360;9.650;2023-01-31T16:27:58;16.40;;;10.73;;
46377;SDS011;32083;47.360;9.650;2023-01-31T16:30:29;18.65;;;9.80;;
46377;SDS011;32083;47.360;9.650;2023-01-31T16:32:55;14.90;;;10.82;;
46377;SDS011;32083;47.360;9.650;2023-01-31T16:35:23;16.77;;;9.13;;
46377;SDS011;32083;47.360;9.650;2023-01-31T16:38:04;13.80;;;9.82;;
46377;SDS011;32083;47.360;9.650;2023-01-31T16:40:46;19.25;;;11.77;;
46377;SDS011;32083;47.360;9.650;2023-01-31T16:43:19;19.65;;;13.90;;
46377;SDS011;32083;47.360;9.650;2023-01-31T16:45:52;20.65;;;14.52;;
46377;SDS011;32083;47.360;9.650;2023-01-31T16:48:24;20.95;;;13.48;;
46377;SDS011;32083;47.360;9.650;2023-01-31T16:50:59;18.10;;;12.23;;
46377;SDS011;32083;47.360;9.650;2023-01-31T16:53:45;18.85;;;15.10;;
46377;SDS011;32083;47.360;9.650;2023-01-31T17:04:46;17.13;;;9.50;;
46377;SDS011;32083;47.360;9.650;2023-01-31T17:07:20;13.73;;;9.68;;
46377;SDS011;32083;47.360;9.650;2023-01-31T17:09:48;12.45;;;9.57;;
46377;SDS011;32083;47.360;9.650;2023-01-31T17:12:21;19.55;;;12.45;;
46377;SDS011;32083;47.360;9.650;2023-01-31T17:14:55;22.42;;;13.85;;
46377;SDS011;32083;47.360;9.650;2023-01-31T17:17:30;19.90;;;13.32;;
46377;SDS011;32083;47.360;9.650;2023-01-31T17:20:04;20.17;;;13.38;;
46377;SDS011;32083;47.360;9.650;2023-01-31T17:22:30;16.58;;;11.48;;
46377;SDS011;32083;47.360;9.650;2023-01-31T17:24:56;19.85;;;13.80;;
46377;SDS011;32083;47.360;9.650;2023-01-31T17:27:22;18.25;;;12.88;;